sensor_id;sensor_type;location;lat;lon;timestamp;pressure;altitude;pressure_sealevel;temperature;humidity
6393;BME280;3229;42.674;23.282;2024-02-21T00:00:47;95228.41;;;11.01;64.06
6393;BME280;3229;42.674;23.282;2024-02-21T00:03:14;95255.31;;;11.16;63.83
6393;BME280;3229;42.674;23.282;2024-02-21T00:05:40;95251.13;;;11.15;63.88
6393;BME280;3229;42.674;23.282;2024-02-21T00:08:07;95252.88;;;11.15;63.93
6393;BME280;3229;42.674;23.282;2024-02-21T00:10:35;95243.69;;;11.12;63.86
6393;BME280;3229;42.674;23.282;2024-02-21T00:13:02;95248.56;;;11.15;63.86
6393;BME280;3229;42.674;23.282;2024-02-21T00:15:29;95238.56;;;11.12;63.91
6393;BME280;3229;42.674;23.282;2024-02-21T00:17:56;95246.00;;;11.15;63.79
6393;BME280;3229;42.674;23.282;2024-02-21T00:20:22;95245.59;;;11.10;64.07
6393;BME280;3229;42.674;23.282;2024-02-21T00:22:51;95221.44;;;11.03;63.75
6393;BME280;3229;42.674;23.282;2024-02-21T00:25:18;95199.66;;;10.88;63.91
6393;BME280;3229;42.674;23.282;2024-02-21T00:27:46;95212.06;;;10.92;63.92
6393;BME280;3229;42.674;23.282;2024-02-21T00:30:13;95206.28;;;10.90;63.95
6393;BME280;3229;42.674;23.282;2024-02-21T00:32:39;95246.25;;;11.12;63.97
6393;BME280;3229;42.674;23.282;2024-02-21T00:35:07;95237.78;;;11.12;63.71
6393;BME280;3229;42.674;23.282;2024-02-21T00:37:33;95246.25;;;11.12;63.71
6393;BME280;3229;42.674;23.282;2024-02-21T00:40:00;95244.63;;;11.11;63.93
6393;BME280;3229;42.674;23.282;2024-02-21T00:42:27;95236.16;;;11.11;64.06
6393;BME280;3229;42.674;23.282;2024-02-21T00:44:55;95235.44;;;11.09;64.18
6393;BME280;3229;42.674;23.282;2024-02-21T00:47:22;95225.59;;;11.04;64.11
6393;BME280;3229;42.674;23.282;2024-02-21T00:49:48;95228.84;;;11.06;64.03
6393;BME280;3229;42.674;23.282;2024-02-21T00:52:15;95232.09;;;11.08;64.06
6393;BME280;3229;42.674;23.282;2024-02-21T00:54:42;95200.59;;;10.87;64.13
6393;BME280;3229;42.674;23.282;2024-02-21T00:57:09;95212.25;;;11.00;64.05
6393;BME280;3229;42.674;23.282;2024-02-21T00:59:35;95203.03;;;10.88;63.88
6393;BME280;3229;42.674;23.282;2024-02-21T01:02:04;95219.28;;;11.08;64.11
6393;BME280;3229;42.674;23.282;2024-02-21T01:04:30;95211.75;;;11.07;64.16
6393;BME280;3229;42.674;23.282;2024-02-21T01:06:57;95206.88;;;11.03;64.09
6393;BME280;3229;42.674;23.282;2024-02-21T01:09:24;95215.25;;;11.05;64.18
6393;BME280;3229;42.674;23.282;2024-02-21T01:11:51;95208.38;;;11.06;64.14
6393;BME280;3229;42.674;23.282;2024-02-21T01:14:17;95210.94;;;11.06;64.19
6393;BME280;3229;42.674;23.282;2024-02-21T01:16:44;95202.47;;;11.05;64.10
6393;BME280;3229;42.674;23.282;2024-02-21T01:19:12;95205.00;;;11.05;64.23
6393;BME280;3229;42.674;23.282;2024-02-21T01:21:39;95205.13;;;11.04;63.84
6393;BME280;3229;42.674;23.282;2024-02-21T01:24:06;95165.53;;;10.77;64.57
6393;BME280;3229;42.674;23.282;2024-02-21T01:26:33;95207.56;;;11.05;64.28
6393;BME280;3229;42.674;23.282;2024-02-21T01:29:00;95193.94;;;11.05;64.13
6393;BME280;3229;42.674;23.282;2024-02-21T01:31:27;95168.13;;;10.87;64.15
6393;BME280;3229;42.674;23.282;2024-02-21T01:33:53;95170.44;;;10.90;64.04
6393;BME280;3229;42.674;23.282;2024-02-21T01:36:22;95200.56;;;11.08;64.26
6393;BME280;3229;42.674;23.282;2024-02-21T01:38:49;95195.44;;;11.08;64.20
6393;BME280;3229;42.674;23.282;2024-02-21T01:41:15;95192.75;;;11.09;64.21
6393;BME280;3229;42.674;23.282;2024-02-21T01:43:43;95175.75;;;10.98;64.09
6393;BME280;3229;42.674;23.282;2024-02-21T01:46:10;95125.66;;;10.75;64.14
6393;BME280;3229;42.674;23.282;2024-02-21T01:48:36;95173.03;;;11.00;64.22
6393;BME280;3229;42.674;23.282;2024-02-21T01:51:04;95179.16;;;11.09;64.12
6393;BME280;3229;42.674;23.282;2024-02-21T01:53:35;95177.53;;;11.08;64.01
6393;BME280;3229;42.674;23.282;2024-02-21T01:56:04;95174.84;;;11.09;64.22
6393;BME280;3229;42.674;23.282;2024-02-21T01:58:33;95078.00;;;10.43;64.30
6393;BME280;3229;42.674;23.282;2024-02-21T02:01:02;95139.88;;;10.89;64.11
6393;BME280;3229;42.674;23.282;2024-02-21T02:03:29;95170.66;;;11.08;64.17
6393;BME280;3229;42.674;23.282;2024-02-21T02:05:57;95179.16;;;11.09;64.10
6393;BME280;3229;42.674;23.282;2024-02-21T02:08:23;95167.13;;;10.99;64.06
6393;BME280;3229;42.674;23.282;2024-02-21T02:10:52;95178.34;;;11.08;63.90
6393;BME280;3229;42.674;23.282;2024-02-21T02:13:18;95171.59;;;11.07;64.20
6393;BME280;3229;42.674;23.282;2024-02-21T02:15:47;95172.41;;;11.08;64.08
6393;BME280;3229;42.674;23.282;2024-02-21T02:18:15;95164.72;;;11.08;63.86
6393;BME280;3229;42.674;23.282;2024-02-21T02:20:43;95161.75;;;11.02;64.10
6393;BME280;3229;42.674;23.282;2024-02-21T02:23:11;95167.28;;;11.08;64.24
6393;BME280;3229;42.674;23.282;2024-02-21T02:25:40;95163.94;;;11.07;64.01
6393;BME280;3229;42.674;23.282;2024-02-21T02:28:07;95130.56;;;10.88;64.06
6393;BME280;3229;42.674;23.282;2024-02-21T02:30:34;95120.31;;;10.78;63.96
6393;BME280;3229;42.674;23.282;2024-02-21T02:33:01;95163.38;;;11.03;64.07
6393;BME280;3229;42.674;23.282;2024-02-21T02:35:28;95145.28;;;10.95;63.90
6393;BME280;3229;42.674;23.282;2024-02-21T02:37:55;95158.25;;;11.03;64.08
6393;BME280;3229;42.674;23.282;2024-02-21T02:40:22;95161.50;;;11.05;64.10
6393;BME280;3229;42.674;23.282;2024-02-21T02:42:51;95115.06;;;10.79;64.07
6393;BME280;3229;42.674;23.282;2024-02-21T02:45:21;95155.44;;;11.07;64.09
6393;BME280;3229;42.674;23.282;2024-02-21T02:47:48;95149.50;;;11.06;64.18
6393;BME280;3229;42.674;23.282;2024-02-21T02:50:15;95141.78;;;10.96;63.99
6393;BME280;3229;42.674;23.282;2024-02-21T02:52:42;95165.69;;;11.07;63.94
6393;BME280;3229;42.674;23.282;2024-02-21T02:55:08;95124.38;;;10.80;64.20
6393;BME280;3229;42.674;23.282;2024-02-21T02:57:35;95163.94;;;11.07;64.03
6393;BME280;3229;42.674;23.282;2024-02-21T03:00:05;95113.16;;;10.72;63.96
6393;BME280;3229;42.674;23.282;2024-02-21T03:02:32;95136.25;;;10.91;64.04
6393;BME280;3229;42.674;23.282;2024-02-21T03:04:58;95169.03;;;11.07;63.86
6393;BME280;3229;42.674;23.282;2024-02-21T03:07:25;95160.56;;;11.07;63.89
6393;BME280;3229;42.674;23.282;2024-02-21T03:09:52;95165.69;;;11.07;64.08
6393;BME280;3229;42.674;23.282;2024-02-21T03:12:20;95161.06;;;11.00;63.92
6393;BME280;3229;42.674;23.282;2024-02-21T03:14:52;95170.09;;;11.04;64.20
6393;BME280;3229;42.674;23.282;2024-02-21T03:17:21;95177.78;;;11.04;63.98
6393;BME280;3229;42.674;23.282;2024-02-21T03:19:48;95172.78;;;11.03;63.82
6393;BME280;3229;42.674;23.282;2024-02-21T03:22:15;95179.78;;;11.01;64.20
6393;BME280;3229;42.674;23.282;2024-02-21T03:24:42;95187.47;;;11.01;63.93
6393;BME280;3229;42.674;23.282;2024-02-21T03:27:10;95175.03;;;10.96;64.22
6393;BME280;3229;42.674;23.282;2024-02-21T03:29:38;95182.47;;;10.99;64.22
6393;BME280;3229;42.674;23.282;2024-02-21T03:32:04;95173.56;;;10.94;64.13
6393;BME280;3229;42.674;23.282;2024-02-21T03:34:32;95181.00;;;10.97;64.12
6393;BME280;3229;42.674;23.282;2024-02-21T03:36:59;95184.47;;;10.96;64.00
6393;BME280;3229;42.674;23.282;2024-02-21T03:39:26;95188.78;;;10.95;64.08
6393;BME280;3229;42.674;23.282;2024-02-21T03:41:53;95183.00;;;10.93;64.08
6393;BME280;3229;42.674;23.282;2024-02-21T03:44:20;95170.53;;;10.79;64.12
6393;BME280;3229;42.674;23.282;2024-02-21T03:46:46;95189.03;;;10.92;64.09
6393;BME280;3229;42.674;23.282;2024-02-21T03:49:13;95177.81;;;10.84;64.02
6393;BME280;3229;42.674;23.282;2024-02-21T03:51:41;95178.66;;;10.84;63.99
6393;BME280;3229;42.674;23.282;2024-02-21T03:54:08;95187.31;;;10.93;64.04
6393;BME280;3229;42.674;23.282;2024-02-21T03:56:37;95191.59;;;10.92;64.02
6393;BME280;3229;42.674;23.282;2024-02-21T03:59:05;95190.78;;;10.92;64.11
6393;BME280;3229;42.674;23.282;2024-02-21T04:01:32;95159.06;;;10.73;64.12
6393;BME280;3229;42.674;23.282;2024-02-21T04:03:58;95195.09;;;10.91;64.08
6393;BME280;3229;42.674;23.282;2024-02-21T04:06:25;95186.31;;;10.84;64.29
6393;BME280;3229;42.674;23.282;2024-02-21T04:08:54;95185.81;;;10.90;64.14
6393;BME280;3229;42.674;23.282;2024-02-21T04:11:20;95190.91;;;10.90;64.18
6393;BME280;3229;42.674;23.282;2024-02-21T04:13:47;95187.56;;;10.90;64.06
6393;BME280;3229;42.674;23.282;2024-02-21T04:16:15;95187.69;;;10.88;64.00
6393;BME280;3229;42.674;23.282;2024-02-21T04:18:42;95185.81;;;10.90;64.06
6393;BME280;3229;42.674;23.282;2024-02-21T04:21:09;95181.50;;;10.91;63.92
6393;BME280;3229;42.674;23.282;2024-02-21T04:23:36;95124.22;;;10.51;64.12
6393;BME280;3229;42.674;23.282;2024-02-21T04:26:05;95184.19;;;10.89;64.08
6393;BME280;3229;42.674;23.282;2024-02-21T04:28:32;95175.38;;;10.82;64.12
6393;BME280;3229;42.674;23.282;2024-02-21T04:30:58;95168.81;;;10.79;64.07
6393;BME280;3229;42.674;23.282;2024-02-21T04:33:25;95187.13;;;10.85;64.27
6393;BME280;3229;42.674;23.282;2024-02-21T04:35:52;95181.44;;;10.81;64.15
6393;BME280;3229;42.674;23.282;2024-02-21T04:38:20;95189.28;;;10.79;64.59
6393;BME280;3229;42.674;23.282;2024-02-21T04:40:47;95198.00;;;10.77;64.33
6393;BME280;3229;42.674;23.282;2024-02-21T04:43:15;95185.97;;;10.68;64.26
6393;BME280;3229;42.674;23.282;2024-02-21T04:45:42;95187.44;;;10.70;64.39
6393;BME280;3229;42.674;23.282;2024-02-21T04:48:09;95178.25;;;10.58;64.55
6393;BME280;3229;42.674;23.282;2024-02-21T04:50:35;95187.53;;;10.59;64.48
6393;BME280;3229;42.674;23.282;2024-02-21T04:53:02;95183.72;;;10.53;64.40
6393;BME280;3229;42.674;23.282;2024-02-21T04:55:30;95184.78;;;10.51;64.86
6393;BME280;3229;42.674;23.282;2024-02-21T04:57:56;95199.75;;;10.55;64.68
6393;BME280;3229;42.674;23.282;2024-02-21T05:00:24;95196.53;;;10.53;64.98
6393;BME280;3229;42.674;23.282;2024-02-21T05:02:51;95200.25;;;10.49;64.55
6393;BME280;3229;42.674;23.282;2024-02-21T05:05:18;95197.00;;;10.47;64.78
6393;BME280;3229;42.674;23.282;2024-02-21T05:07:46;95196.31;;;10.45;64.83
6393;BME280;3229;42.674;23.282;2024-02-21T05:10:13;95171.56;;;10.25;64.79
6393;BME280;3229;42.674;23.282;2024-02-21T05:12:40;95169.09;;;10.23;64.84
6393;BME280;3229;42.674;23.282;2024-02-21T05:15:07;95207.03;;;10.39;64.95
6393;BME280;3229;42.674;23.282;2024-02-21T05:17:36;95181.19;;;10.21;65.06
6393;BME280;3229;42.674;23.282;2024-02-21T05:20:03;95169.13;;;10.12;64.85
6393;BME280;3229;42.674;23.282;2024-02-21T05:22:31;95211.47;;;10.37;65.03
6393;BME280;3229;42.674;23.282;2024-02-21T05:24:58;95211.47;;;10.37;65.03
6393;BME280;3229;42.674;23.282;2024-02-21T05:27:24;95134.16;;;9.92;64.72
6393;BME280;3229;42.674;23.282;2024-02-21T05:29:51;95208.78;;;10.39;64.95
6393;BME280;3229;42.674;23.282;2024-02-21T05:32:19;95209.59;;;10.39;65.01
6393;BME280;3229;42.674;23.282;2024-02-21T05:34:50;95209.34;;;10.42;64.99
6393;BME280;3229;42.674;23.282;2024-02-21T05:37:16;95192.19;;;10.33;64.96
6393;BME280;3229;42.674;23.282;2024-02-21T05:39:43;95204.81;;;10.46;64.93
6393;BME280;3229;42.674;23.282;2024-02-21T05:42:10;95203.06;;;10.46;64.85
6393;BME280;3229;42.674;23.282;2024-02-21T05:44:37;95214.53;;;10.52;64.76
6393;BME280;3229;42.674;23.282;2024-02-21T05:47:04;95210.91;;;10.54;64.54
6393;BME280;3229;42.674;23.282;2024-02-21T05:49:35;95216.84;;;10.55;64.53
6393;BME280;3229;42.674;23.282;2024-02-21T05:52:03;95211.91;;;10.63;64.52
6393;BME280;3229;42.674;23.282;2024-02-21T05:54:31;95202.97;;;10.58;64.65
6393;BME280;3229;42.674;23.282;2024-02-21T05:56:58;95209.09;;;10.66;64.54
6393;BME280;3229;42.674;23.282;2024-02-21T05:59:24;95227.63;;;10.79;64.15
6393;BME280;3229;42.674;23.282;2024-02-21T06:01:58;95231.31;;;10.87;64.07
6393;BME280;3229;42.674;23.282;2024-02-21T06:04:24;95186.63;;;10.70;64.03
6393;BME280;3229;42.674;23.282;2024-02-21T06:06:51;95223.34;;;11.11;64.78
6393;BME280;3229;42.674;23.282;2024-02-21T06:09:19;95232.19;;;11.27;66.59
6393;BME280;3229;42.674;23.282;2024-02-21T06:11:46;95232.38;;;11.45;68.16
6393;BME280;3229;42.674;23.282;2024-02-21T06:14:14;95235.00;;;11.65;68.93
6393;BME280;3229;42.674;23.282;2024-02-21T06:16:42;95233.19;;;11.96;73.11
6393;BME280;3229;42.674;23.282;2024-02-21T06:19:09;95144.81;;;11.71;78.32
6393;BME280;3229;42.674;23.282;2024-02-21T06:21:36;95241.75;;;12.54;77.38
6393;BME280;3229;42.674;23.282;2024-02-21T06:24:04;95247.00;;;12.72;76.30
6393;BME280;3229;42.674;23.282;2024-02-21T06:26:32;95234.81;;;12.84;76.15
6393;BME280;3229;42.674;23.282;2024-02-21T06:28:59;95214.84;;;12.78;75.63
6393;BME280;3229;42.674;23.282;2024-02-21T06:31:29;95235.72;;;13.02;75.08
6393;BME280;3229;42.674;23.282;2024-02-21T06:33:56;95251.78;;;13.14;74.32
6393;BME280;3229;42.674;23.282;2024-02-21T06:36:23;95212.22;;;12.97;73.92
6393;BME280;3229;42.674;23.282;2024-02-21T06:38:51;95248.94;;;13.27;73.27
6393;BME280;3229;42.674;23.282;2024-02-21T06:41:18;95244.97;;;13.33;72.68
6393;BME280;3229;42.674;23.282;2024-02-21T06:43:46;95253.34;;;13.44;71.82
6393;BME280;3229;42.674;23.282;2024-02-21T06:46:22;95266.94;;;13.54;70.86
6393;BME280;3229;42.674;23.282;2024-02-21T06:48:49;95258.25;;;13.65;70.17
6393;BME280;3229;42.674;23.282;2024-02-21T06:51:16;95269.28;;;13.75;69.51
6393;BME280;3229;42.674;23.282;2024-02-21T06:53:43;95256.16;;;13.78;68.84
6393;BME280;3229;42.674;23.282;2024-02-21T06:56:10;95271.63;;;13.96;68.38
6393;BME280;3229;42.674;23.282;2024-02-21T06:58:37;95262.50;;;14.02;67.71
6393;BME280;3229;42.674;23.282;2024-02-21T07:01:05;95267.91;;;14.09;67.44
6393;BME280;3229;42.674;23.282;2024-02-21T07:03:32;95257.00;;;14.15;66.69
6393;BME280;3229;42.674;23.282;2024-02-21T07:05:59;95275.19;;;14.31;66.09
6393;BME280;3229;42.674;23.282;2024-02-21T07:08:26;95258.16;;;14.30;65.73
6393;BME280;3229;42.674;23.282;2024-02-21T07:10:52;95277.13;;;14.47;65.53
6393;BME280;3229;42.674;23.282;2024-02-21T07:13:19;95276.53;;;14.53;65.04
6393;BME280;3229;42.674;23.282;2024-02-21T07:15:47;95270.16;;;14.57;64.75
6393;BME280;3229;42.674;23.282;2024-02-21T07:18:16;95253.00;;;14.48;64.39
6393;BME280;3229;42.674;23.282;2024-02-21T07:20:42;95255.03;;;14.44;64.36
6393;BME280;3229;42.674;23.282;2024-02-21T07:23:09;95273.38;;;14.59;63.98
6393;BME280;3229;42.674;23.282;2024-02-21T07:25:36;95277.72;;;14.59;63.87
6393;BME280;3229;42.674;23.282;2024-02-21T07:28:03;95253.13;;;14.46;63.41
6393;BME280;3229;42.674;23.282;2024-02-21T07:30:30;95284.06;;;14.64;63.48
6393;BME280;3229;42.674;23.282;2024-02-21T07:32:57;95280.38;;;14.67;62.91
6393;BME280;3229;42.674;23.282;2024-02-21T07:35:25;95277.84;;;14.75;62.84
6393;BME280;3229;42.674;23.282;2024-02-21T07:37:51;95280.66;;;14.82;62.53
6393;BME280;3229;42.674;23.282;2024-02-21T07:40:18;95275.88;;;14.87;62.22
6393;BME280;3229;42.674;23.282;2024-02-21T07:42:45;95286.44;;;15.01;61.73
6393;BME280;3229;42.674;23.282;2024-02-21T07:45:12;95264.72;;;15.04;61.60
6393;BME280;3229;42.674;23.282;2024-02-21T07:47:38;95276.75;;;15.21;61.41
6393;BME280;3229;42.674;23.282;2024-02-21T07:50:06;95267.25;;;15.22;60.87
6393;BME280;3229;42.674;23.282;2024-02-21T07:52:35;95276.69;;;15.39;60.62
6393;BME280;3229;42.674;23.282;2024-02-21T07:55:01;95274.00;;;15.49;60.40
6393;BME280;3229;42.674;23.282;2024-02-21T07:57:28;95260.81;;;15.52;60.25
6393;BME280;3229;42.674;23.282;2024-02-21T07:59:55;95247.44;;;15.56;59.80
6393;BME280;3229;42.674;23.282;2024-02-21T08:02:22;95265.31;;;15.84;59.55
6393;BME280;3229;42.674;23.282;2024-02-21T08:04:49;95271.16;;;15.94;59.36
6393;BME280;3229;42.674;23.282;2024-02-21T08:07:15;95260.50;;;15.97;59.00
6393;BME280;3229;42.674;23.282;2024-02-21T08:09:43;95263.53;;;16.43;75.59
6393;BME280;3229;42.674;23.282;2024-02-21T08:12:10;95268.72;;;17.00;75.87
6393;BME280;3229;42.674;23.282;2024-02-21T08:14:37;95264.28;;;17.50;73.50
6393;BME280;3229;42.674;23.282;2024-02-21T08:17:04;95267.47;;;17.76;70.39
6393;BME280;3229;42.674;23.282;2024-02-21T08:19:30;95268.53;;;17.90;68.18
6393;BME280;3229;42.674;23.282;2024-02-21T08:21:57;95263.16;;;18.00;66.75
6393;BME280;3229;42.674;23.282;2024-02-21T08:24:24;95266.66;;;18.15;65.03
6393;BME280;3229;42.674;23.282;2024-02-21T08:26:52;95272.34;;;18.34;63.64
6393;BME280;3229;42.674;23.282;2024-02-21T08:29:19;95269.47;;;18.51;62.28
6393;BME280;3229;42.674;23.282;2024-02-21T08:31:45;95260.53;;;18.62;61.52
6393;BME280;3229;42.674;23.282;2024-02-21T08:34:12;95247.56;;;18.62;60.79
6393;BME280;3229;42.674;23.282;2024-02-21T08:36:39;95204.97;;;18.42;60.14
6393;BME280;3229;42.674;23.282;2024-02-21T08:39:06;95268.19;;;19.01;59.40
6393;BME280;3229;42.674;23.282;2024-02-21T08:41:34;95248.41;;;19.00;58.68
6393;BME280;3229;42.674;23.282;2024-02-21T08:44:03;95243.44;;;19.14;58.06
6393;BME280;3229;42.674;23.282;2024-02-21T08:46:30;95266.91;;;19.35;57.61
6393;BME280;3229;42.674;23.282;2024-02-21T08:48:56;95272.00;;;19.43;57.00
6393;BME280;3229;42.674;23.282;2024-02-21T08:51:23;95275.66;;;19.49;56.93
6393;BME280;3229;42.674;23.282;2024-02-21T08:53:50;95273.88;;;19.49;56.43
6393;BME280;3229;42.674;23.282;2024-02-21T08:56:17;95225.47;;;19.27;56.23
6393;BME280;3229;42.674;23.282;2024-02-21T08:58:44;95234.59;;;19.23;56.00
6393;BME280;3229;42.674;23.282;2024-02-21T09:01:13;95277.25;;;19.50;55.77
6393;BME280;3229;42.674;23.282;2024-02-21T09:03:40;95275.59;;;19.57;55.41
6393;BME280;3229;42.674;23.282;2024-02-21T09:06:07;95281.06;;;19.62;54.96
6393;BME280;3229;42.674;23.282;2024-02-21T09:08:36;95277.31;;;19.65;54.70
6393;BME280;3229;42.674;23.282;2024-02-21T09:11:03;95275.34;;;19.67;54.52
6393;BME280;3229;42.674;23.282;2024-02-21T09:13:29;95271.69;;;19.61;54.18
6393;BME280;3229;42.674;23.282;2024-02-21T09:15:56;95282.50;;;19.65;54.13
6393;BME280;3229;42.674;23.282;2024-02-21T09:18:25;95286.75;;;19.58;53.93
6393;BME280;3229;42.674;23.282;2024-02-21T09:20:52;95274.47;;;19.51;53.90
6393;BME280;3229;42.674;23.282;2024-02-21T09:23:18;95272.25;;;19.48;53.61
6393;BME280;3229;42.674;23.282;2024-02-21T09:25:45;95277.38;;;19.57;53.38
6393;BME280;3229;42.674;23.282;2024-02-21T09:28:12;95271.09;;;19.51;53.26
6393;BME280;3229;42.674;23.282;2024-02-21T09:30:39;95215.91;;;19.27;52.98
6393;BME280;3229;42.674;23.282;2024-02-21T09:33:06;95277.94;;;19.67;52.74
6393;BME280;3229;42.674;23.282;2024-02-21T09:35:34;95274.78;;;19.71;52.60
6393;BME280;3229;42.674;23.282;2024-02-21T09:38:01;95282.38;;;19.73;52.38
6393;BME280;3229;42.674;23.282;2024-02-21T09:40:28;95260.13;;;19.64;52.11
6393;BME280;3229;42.674;23.282;2024-02-21T09:43:02;95281.78;;;19.71;52.11
6393;BME280;3229;42.674;23.282;2024-02-21T09:45:30;95277.19;;;19.73;51.97
6393;BME280;3229;42.674;23.282;2024-02-21T09:48:19;95279.44;;;19.76;51.91
6393;BME280;3229;42.674;23.282;2024-02-21T09:50:53;95274.78;;;19.71;51.87
6393;BME280;3229;42.674;23.282;2024-02-21T09:53:22;95267.41;;;19.60;51.90
6393;BME280;3229;42.674;23.282;2024-02-21T09:55:50;95275.94;;;19.54;51.93
6393;BME280;3229;42.674;23.282;2024-02-21T09:58:17;95278.44;;;19.47;51.69
6393;BME280;3229;42.674;23.282;2024-02-21T10:00:44;95242.38;;;19.23;51.74
6393;BME280;3229;42.674;23.282;2024-02-21T10:03:11;95275.56;;;19.42;51.61
6393;BME280;3229;42.674;23.282;2024-02-21T10:05:38;95274.13;;;19.40;51.44
6393;BME280;3229;42.674;23.282;2024-02-21T10:08:14;95249.97;;;19.24;51.08
6393;BME280;3229;42.674;23.282;2024-02-21T10:10:42;95233.53;;;19.17;51.26
6393;BME280;3229;42.674;23.282;2024-02-21T10:13:09;95265.72;;;19.38;51.02
6393;BME280;3229;42.674;23.282;2024-02-21T10:15:37;95258.56;;;19.40;50.84
6393;BME280;3229;42.674;23.282;2024-02-21T10:18:04;95231.19;;;19.22;50.60
6393;BME280;3229;42.674;23.282;2024-02-21T10:20:32;95252.28;;;19.34;50.65
6393;BME280;3229;42.674;23.282;2024-02-21T10:23:02;95245.94;;;19.22;50.62
6393;BME280;3229;42.674;23.282;2024-02-21T10:25:34;95250.22;;;19.29;50.43
6393;BME280;3229;42.674;23.282;2024-02-21T10:28:04;95246.03;;;19.28;50.30
6393;BME280;3229;42.674;23.282;2024-02-21T10:30:30;95243.44;;;19.28;50.03
6393;BME280;3229;42.674;23.282;2024-02-21T10:32:57;95240.78;;;19.22;50.08
6393;BME280;3229;42.674;23.282;2024-02-21T10:35:28;95136.84;;;18.56;50.26
6393;BME280;3229;42.674;23.282;2024-02-21T10:37:56;95187.28;;;18.91;50.16
6393;BME280;3229;42.674;23.282;2024-02-21T10:40:24;95203.91;;;18.97;50.07
6393;BME280;3229;42.674;23.282;2024-02-21T10:42:56;95213.00;;;19.08;49.89
6393;BME280;3229;42.674;23.282;2024-02-21T10:45:29;95200.44;;;19.04;49.73
6393;BME280;3229;42.674;23.282;2024-02-21T10:48:05;95194.19;;;19.14;49.46
6393;BME280;3229;42.674;23.282;2024-02-21T10:50:39;95190.69;;;19.21;49.26
6393;BME280;3229;42.674;23.282;2024-02-21T10:53:18;95181.19;;;19.28;48.91
6393;BME280;3229;42.674;23.282;2024-02-21T10:55:56;95155.72;;;19.17;48.74
6393;BME280;3229;42.674;23.282;2024-02-21T10:58:26;95173.13;;;19.38;48.53
6393;BME280;3229;42.674;23.282;2024-02-21T11:00:55;95168.84;;;19.45;48.36
6393;BME280;3229;42.674;23.282;2024-02-21T11:03:22;95128.28;;;19.23;48.21
6393;BME280;3229;42.674;23.282;2024-02-21T11:05:49;95169.75;;;19.52;47.97
6393;BME280;3229;42.674;23.282;2024-02-21T11:08:17;95167.31;;;19.51;47.98
6393;BME280;3229;42.674;23.282;2024-02-21T11:10:46;95142.56;;;19.34;47.85
6393;BME280;3229;42.674;23.282;2024-02-21T11:13:12;95150.72;;;19.30;47.80
6393;BME280;3229;42.674;23.282;2024-02-21T11:15:41;95160.25;;;19.45;47.75
6393;BME280;3229;42.674;23.282;2024-02-21T11:18:08;95130.50;;;19.26;47.62
6393;BME280;3229;42.674;23.282;2024-02-21T11:20:36;95141.75;;;19.33;47.59
6393;BME280;3229;42.674;23.282;2024-02-21T11:23:04;95159.22;;;19.39;47.62
6393;BME280;3229;42.674;23.282;2024-02-21T11:25:31;95107.81;;;18.98;47.97
6393;BME280;3229;42.674;23.282;2024-02-21T11:28:00;95167.97;;;19.23;47.71
6393;BME280;3229;42.674;23.282;2024-02-21T11:30:27;95162.34;;;19.20;47.72
6393;BME280;3229;42.674;23.282;2024-02-21T11:33:00;95160.28;;;19.15;47.68
6393;BME280;3229;42.674;23.282;2024-02-21T11:35:31;95160.63;;;19.12;47.63
6393;BME280;3229;42.674;23.282;2024-02-21T11:38:07;95131.47;;;18.95;47.60
6393;BME280;3229;42.674;23.282;2024-02-21T11:40:38;95154.38;;;19.07;47.60
6393;BME280;3229;42.674;23.282;2024-02-21T11:43:05;95151.31;;;19.03;47.40
6393;BME280;3229;42.674;23.282;2024-02-21T11:45:32;95152.84;;;18.97;47.37
6393;BME280;3229;42.674;23.282;2024-02-21T11:48:00;95143.81;;;18.93;47.30
6393;BME280;3229;42.674;23.282;2024-02-21T11:50:29;95141.59;;;18.90;47.15
6393;BME280;3229;42.674;23.282;2024-02-21T11:52:57;95145.09;;;18.83;47.11
6393;BME280;3229;42.674;23.282;2024-02-21T11:55:24;95140.78;;;18.75;47.15
6393;BME280;3229;42.674;23.282;2024-02-21T11:57:51;95138.84;;;18.69;47.22
6393;BME280;3229;42.674;23.282;2024-02-21T12:00:18;95141.50;;;18.61;47.17
6393;BME280;3229;42.674;23.282;2024-02-21T12:02:46;95136.59;;;18.51;47.20
6393;BME280;3229;42.674;23.282;2024-02-21T12:05:15;95122.81;;;18.36;47.24
6393;BME280;3229;42.674;23.282;2024-02-21T12:07:42;95135.28;;;18.32;47.39
6393;BME280;3229;42.674;23.282;2024-02-21T12:10:10;95125.25;;;18.14;47.38
6393;BME280;3229;42.674;23.282;2024-02-21T12:12:37;95132.81;;;18.16;47.52
6393;BME280;3229;42.674;23.282;2024-02-21T12:15:05;95129.50;;;18.07;47.57
6393;BME280;3229;42.674;23.282;2024-02-21T12:17:32;95135.53;;;17.99;47.66
6393;BME280;3229;42.674;23.282;2024-02-21T12:20:00;95117.88;;;17.80;47.72
6393;BME280;3229;42.674;23.282;2024-02-21T12:22:30;95128.22;;;17.80;47.88
6393;BME280;3229;42.674;23.282;2024-02-21T12:24:58;95119.69;;;17.71;47.94
6393;BME280;3229;42.674;23.282;2024-02-21T12:27:24;95121.34;;;17.64;48.02
6393;BME280;3229;42.674;23.282;2024-02-21T12:29:52;95113.78;;;17.54;47.99
6393;BME280;3229;42.674;23.282;2024-02-21T12:32:20;95123.19;;;17.47;48.12
6393;BME280;3229;42.674;23.282;2024-02-21T12:34:47;95108.53;;;17.40;48.20
6393;BME280;3229;42.674;23.282;2024-02-21T12:37:14;95098.72;;;17.27;48.22
6393;BME280;3229;42.674;23.282;2024-02-21T12:39:42;95103.91;;;17.27;48.17
6393;BME280;3229;42.674;23.282;2024-02-21T12:42:09;95112.47;;;17.27;48.25
6393;BME280;3229;42.674;23.282;2024-02-21T12:44:37;95108.63;;;17.23;48.12
6393;BME280;3229;42.674;23.282;2024-02-21T12:47:04;95106.34;;;17.20;48.10
6393;BME280;3229;42.674;23.282;2024-02-21T12:49:31;95109.94;;;17.19;48.18
6393;BME280;3229;42.674;23.282;2024-02-21T12:51:58;95107.66;;;17.16;48.01
6393;BME280;3229;42.674;23.282;2024-02-21T12:54:25;95097.34;;;17.16;48.05
6393;BME280;3229;42.674;23.282;2024-02-21T12:56:53;95009.69;;;16.59;48.02
6393;BME280;3229;42.674;23.282;2024-02-21T12:59:20;95065.09;;;16.96;47.97
6393;BME280;3229;42.674;23.282;2024-02-21T13:01:47;95093.75;;;17.17;48.01
6393;BME280;3229;42.674;23.282;2024-02-21T13:04:14;95090.41;;;17.09;47.87
6393;BME280;3229;42.674;23.282;2024-02-21T13:06:41;95033.84;;;16.83;47.76
6393;BME280;3229;42.674;23.282;2024-02-21T13:09:08;95063.78;;;17.00;47.96
6393;BME280;3229;42.674;23.282;2024-02-21T13:11:37;95077.44;;;17.17;47.99